Time;durP1;ratioP1;P1;durP2;ratioP2;P2;SDS_P1;SDS_P2;PMS_P1;PMS_P2;Temp;Humidity;BMP_temperature;BMP_pressure;BME280_temperature;BME280_humidity;BME280_pressure;Samples;Min_cycle;Max_cycle;Signal;HPM_P1;HPM_P2
2023/11/08 00:01:56;;;;;;;4.70;3.00;;;;;;;;;;2609140;54;20542;-72
2023/11/08 00:04:22;;;;;;;5.10;2.47;;;;;;;;;;2609064;54;20427;-75
2023/11/08 00:06:48;;;;;;;5.57;2.90;;;;;;;;;;2609828;39;20730;-74
2023/11/08 00:09:15;;;;;;;5.60;2.53;;;;;;;;;;2608119;51;20428;-76
2023/11/08 00:11:41;;;;;;;3.93;2.50;;;;;;;;;;2609440;54;20424;-73
2023/11/08 00:14:07;;;;;;;4.53;3.10;;;;;;;;;;2609338;54;20424;-76
2023/11/08 00:16:33;;;;;;;4.73;2.90;;;;;;;;;;2609956;54;20430;-76
2023/11/08 00:19:00;;;;;;;5.50;2.67;;;;;;;;;;2608943;54;20451;-73
2023/11/08 00:21:28;;;;;;;3.47;2.70;;;;;;;;;;2609634;54;20403;-73
2023/11/08 00:23:55;;;;;;;3.43;3.13;;;;;;;;;;2609334;54;20915;-73
2023/11/08 00:26:21;;;;;;;11.43;3.07;;;;;;;;;;2607851;54;21106;-74
2023/11/08 00:28:47;;;;;;;4.43;2.73;;;;;;;;;;2610763;54;21331;-74
2023/11/08 00:31:13;;;;;;;5.50;2.33;;;;;;;;;;2611151;54;21073;-73
2023/11/08 00:33:39;;;;;;;4.97;2.33;;;;;;;;;;2609568;39;20690;-76
2023/11/08 00:36:05;;;;;;;5.67;2.50;;;;;;;;;;2610174;39;21005;-74
2023/11/08 00:38:31;;;;;;;5.53;2.90;;;;;;;;;;2608295;54;20422;-76
2023/11/08 00:40:58;;;;;;;4.77;2.90;;;;;;;;;;2609210;54;20394;-75
2023/11/08 00:43:24;;;;;;;8.20;3.53;;;;;;;;;;2608868;54;20427;-73
2023/11/08 00:45:54;;;;;;;2.90;2.33;;;;;;;;;;2609453;39;20991;-74
2023/11/08 00:48:23;;;;;;;5.90;2.40;;;;;;;;;;2608163;39;20798;-75
2023/11/08 00:50:51;;;;;;;3.60;2.47;;;;;;;;;;2609315;54;20423;-74
2023/11/08 00:53:18;;;;;;;5.90;3.03;;;;;;;;;;2608922;54;20400;-73
2023/11/08 00:55:46;;;;;;;3.17;2.70;;;;;;;;;;2609660;54;21005;-73
2023/11/08 00:58:12;;;;;;;6.00;2.90;;;;;;;;;;2609603;54;20442;-74
2023/11/08 01:00:38;;;;;;;11.40;2.77;;;;;;;;;;2607645;54;20515;-75
2023/11/08 01:03:04;;;;;;;3.70;2.60;;;;;;;;;;2608519;54;20971;-76
2023/11/08 01:05:32;;;;;;;6.63;2.50;;;;;;;;;;2608541;39;20846;-75
2023/11/08 01:07:58;;;;;;;6.47;2.93;;;;;;;;;;2608899;46;20819;-74
2023/11/08 01:10:25;;;;;;;7.20;2.80;;;;;;;;;;2608570;54;20430;-75
2023/11/08 01:12:51;;;;;;;8.13;3.67;;;;;;;;;;2611411;39;20631;-75
2023/11/08 01:15:17;;;;;;;4.17;2.50;;;;;;;;;;2607666;54;20415;-74
2023/11/08 01:17:44;;;;;;;3.73;2.80;;;;;;;;;;2607922;47;20434;-74
2023/11/08 01:20:10;;;;;;;6.80;2.70;;;;;;;;;;2608162;54;21181;-74
2023/11/08 01:22:36;;;;;;;6.83;2.57;;;;;;;;;;2607285;54;20408;-75
2023/11/08 01:25:03;;;;;;;7.80;2.73;;;;;;;;;;2607616;54;20407;-74
2023/11/08 01:27:29;;;;;;;3.87;2.40;;;;;;;;;;2608703;54;20363;-75
2023/11/08 01:29:55;;;;;;;5.00;2.60;;;;;;;;;;2609097;54;20501;-75
2023/11/08 01:32:21;;;;;;;2.27;1.87;;;;;;;;;;2610408;54;20410;-74
2023/11/08 01:34:47;;;;;;;3.10;2.40;;;;;;;;;;2610896;54;20416;-75
2023/11/08 01:37:13;;;;;;;5.20;1.97;;;;;;;;;;2611042;39;20845;-75
2023/11/08 01:39:39;;;;;;;5.33;2.80;;;;;;;;;;2610938;54;20956;-75
2023/11/08 01:42:05;;;;;;;9.60;2.83;;;;;;;;;;2610915;54;20408;-75
2023/11/08 01:44:31;;;;;;;6.33;3.60;;;;;;;;;;2612369;39;20873;-75
2023/11/08 01:46:59;;;;;;;2.50;1.90;;;;;;;;;;2610808;54;20515;-75
2023/11/08 01:49:26;;;;;;;6.47;2.20;;;;;;;;;;2610965;54;20426;-74
2023/11/08 01:51:52;;;;;;;8.97;2.93;;;;;;;;;;2611072;54;20419;-75
2023/11/08 01:54:19;;;;;;;3.63;2.13;;;;;;;;;;2611139;54;20419;-75
2023/11/08 01:56:46;;;;;;;6.87;1.90;;;;;;;;;;2610820;54;20490;-76
2023/11/08 01:59:13;;;;;;;3.73;2.50;;;;;;;;;;2611552;54;20412;-75
2023/11/08 02:01:40;;;;;;;1.90;1.70;;;;;;;;;;2611463;54;20809;-75
2023/11/08 02:04:06;;;;;;;3.47;1.83;;;;;;;;;;2611502;54;20381;-74
2023/11/08 02:06:32;;;;;;;6.03;2.37;;;;;;;;;;2611065;54;20460;-76
2023/11/08 02:09:00;;;;;;;4.90;3.07;;;;;;;;;;2611314;54;20400;-76
2023/11/08 02:11:26;;;;;;;3.87;1.77;;;;;;;;;;2611995;54;20403;-76
2023/11/08 02:13:53;;;;;;;5.20;2.47;;;;;;;;;;2609863;39;20948;-76
2023/11/08 02:16:19;;;;;;;4.40;2.30;;;;;;;;;;2609019;47;21005;-75
2023/11/08 02:18:46;;;;;;;5.37;2.50;;;;;;;;;;2610075;54;21833;-76
2023/11/08 02:21:15;;;;;;;4.03;2.50;;;;;;;;;;2609371;47;20566;-77
2023/11/08 02:23:43;;;;;;;3.33;1.90;;;;;;;;;;2610214;54;20469;-76
2023/11/08 02:26:19;;;;;;;5.73;2.40;;;;;;;;;;2611534;54;20411;-76
2023/11/08 02:28:45;;;;;;;2.70;2.03;;;;;;;;;;2612665;54;20852;-77
2023/11/08 02:31:13;;;;;;;3.87;2.40;;;;;;;;;;2613540;39;20916;-76
2023/11/08 02:33:40;;;;;;;2.03;1.80;;;;;;;;;;2612819;54;20962;-76
2023/11/08 02:36:06;;;;;;;5.07;2.20;;;;;;;;;;2612157;54;20418;-76
2023/11/08 02:38:33;;;;;;;4.40;2.17;;;;;;;;;;2612484;54;20420;-76
2023/11/08 02:41:00;;;;;;;3.00;1.93;;;;;;;;;;2611861;54;20391;-76
2023/11/08 02:43:26;;;;;;;4.47;1.70;;;;;;;;;;2612472;54;20423;-76
2023/11/08 02:45:53;;;;;;;3.30;1.87;;;;;;;;;;2611965;47;20656;-76
2023/11/08 02:48:19;;;;;;;2.50;1.90;;;;;;;;;;2611806;51;20480;-76
2023/11/08 02:50:45;;;;;;;4.27;2.03;;;;;;;;;;2613541;54;20441;-75
2023/11/08 02:53:11;;;;;;;7.10;2.00;;;;;;;;;;2613896;46;20410;-76
2023/11/08 02:55:37;;;;;;;3.40;2.33;;;;;;;;;;2614370;54;20431;-76
2023/11/08 02:58:03;;;;;;;5.13;1.97;;;;;;;;;;2612011;47;20449;-77
2023/11/08 03:00:30;;;;;;;4.13;2.27;;;;;;;;;;2612719;54;20531;-77
2023/11/08 03:02:58;;;;;;;5.53;2.70;;;;;;;;;;2611985;54;20427;-77
2023/11/08 03:05:23;;;;;;;2.97;1.70;;;;;;;;;;2613069;54;22474;-77
2023/11/08 03:07:52;;;;;;;3.20;1.80;;;;;;;;;;2612240;54;20404;-76
2023/11/08 03:10:19;;;;;;;8.07;2.70;;;;;;;;;;2612040;54;20416;-77
2023/11/08 03:12:46;;;;;;;6.53;1.90;;;;;;;;;;2612724;54;20410;-76
2023/11/08 03:15:14;;;;;;;4.03;2.30;;;;;;;;;;2613163;39;20793;-77
2023/11/08 03:17:44;;;;;;;5.73;2.33;;;;;;;;;;2613975;39;20980;-77
2023/11/08 03:20:12;;;;;;;6.10;2.57;;;;;;;;;;2611453;54;20427;-76
2023/11/08 03:22:39;;;;;;;3.30;1.90;;;;;;;;;;2608732;54;20456;-75
2023/11/08 03:25:06;;;;;;;2.47;1.43;;;;;;;;;;2607780;54;20428;-75
2023/11/08 03:27:32;;;;;;;7.03;2.40;;;;;;;;;;2608820;31;20910;-75
2023/11/08 03:29:58;;;;;;;12.33;2.07;;;;;;;;;;2607017;47;20415;-75
2023/11/08 03:32:27;;;;;;;4.67;1.70;;;;;;;;;;2607390;54;20922;-77
2023/11/08 03:34:53;;;;;;;6.53;1.80;;;;;;;;;;2608448;54;20517;-75
2023/11/08 03:37:19;;;;;;;5.50;2.03;;;;;;;;;;2607497;54;20400;-76
2023/11/08 03:39:46;;;;;;;3.60;1.80;;;;;;;;;;2607544;47;20990;-76
2023/11/08 03:42:12;;;;;;;2.27;1.60;;;;;;;;;;2608215;54;20470;-76
2023/11/08 03:44:38;;;;;;;3.00;1.77;;;;;;;;;;2608507;54;21929;-75
2023/11/08 03:47:06;;;;;;;2.80;2.10;;;;;;;;;;2608415;54;20964;-75
2023/11/08 03:49:34;;;;;;;4.57;1.90;;;;;;;;;;2608282;54;20393;-74
2023/11/08 03:52:02;;;;;;;2.87;1.97;;;;;;;;;;2608690;39;20982;-74
2023/11/08 03:54:28;;;;;;;3.77;1.83;;;;;;;;;;2607997;54;20430;-74
2023/11/08 03:56:54;;;;;;;20.57;2.10;;;;;;;;;;2609383;47;20488;-76
2023/11/08 03:59:20;;;;;;;7.03;2.37;;;;;;;;;;2609069;54;20457;-76
2023/11/08 04:01:46;;;;;;;4.87;2.00;;;;;;;;;;2608423;47;20988;-75
2023/11/08 04:04:12;;;;;;;2.93;1.77;;;;;;;;;;2607655;54;20400;-75
2023/11/08 04:06:38;;;;;;;3.83;1.30;;;;;;;;;;2608106;54;20961;-75
2023/11/08 04:09:04;;;;;;;4.87;2.30;;;;;;;;;;2607739;47;20417;-74
2023/11/08 04:11:30;;;;;;;3.03;1.70;;;;;;;;;;2608019;47;20411;-73
2023/11/08 04:13:58;;;;;;;3.93;1.60;;;;;;;;;;2607925;54;20483;-75
2023/11/08 04:16:24;;;;;;;3.50;1.60;;;;;;;;;;2607844;54;20423;-75
2023/11/08 04:18:51;;;;;;;2.53;1.40;;;;;;;;;;2607097;47;20558;-75
2023/11/08 04:21:17;;;;;;;4.80;2.00;;;;;;;;;;2606574;47;20425;-75
2023/11/08 04:23:43;;;;;;;2.77;1.50;;;;;;;;;;2608145;54;20487;-75
2023/11/08 04:26:09;;;;;;;5.30;2.10;;;;;;;;;;2607588;47;20404;-76
2023/11/08 04:28:42;;;;;;;3.50;1.57;;;;;;;;;;2607249;39;20787;-76
2023/11/08 04:31:08;;;;;;;2.70;2.03;;;;;;;;;;2608377;54;20425;-75
2023/11/08 04:33:34;;;;;;;8.57;1.90;;;;;;;;;;2609865;54;20946;-75
2023/11/08 04:36:02;;;;;;;3.17;1.77;;;;;;;;;;2607800;54;20401;-77
2023/11/08 04:38:28;;;;;;;6.53;2.13;;;;;;;;;;2607998;54;20399;-73
2023/11/08 04:40:55;;;;;;;3.47;1.77;;;;;;;;;;2607780;54;20875;-73
2023/11/08 04:43:21;;;;;;;3.97;1.63;;;;;;;;;;2608727;54;20389;-76
2023/11/08 04:45:47;;;;;;;3.90;1.90;;;;;;;;;;2609050;39;21062;-73
2023/11/08 04:48:13;;;;;;;2.10;1.20;;;;;;;;;;2608136;54;20417;-75
2023/11/08 04:50:40;;;;;;;2.37;2.07;;;;;;;;;;2608019;47;20419;-75
2023/11/08 04:53:06;;;;;;;1.90;1.50;;;;;;;;;;2608467;54;20394;-73
2023/11/08 04:55:32;;;;;;;2.33;1.53;;;;;;;;;;2610821;54;20399;-75
2023/11/08 04:57:58;;;;;;;7.53;2.33;;;;;;;;;;2609546;54;20424;-75
2023/11/08 05:00:24;;;;;;;3.50;2.27;;;;;;;;;;2609131;54;20430;-73
2023/11/08 05:02:51;;;;;;;6.47;2.10;;;;;;;;;;2610574;54;20399;-73
2023/11/08 05:05:18;;;;;;;3.73;1.57;;;;;;;;;;2607423;54;20455;-75
2023/11/08 05:07:44;;;;;;;3.43;2.20;;;;;;;;;;2608127;39;20496;-74
2023/11/08 05:10:11;;;;;;;10.03;2.47;;;;;;;;;;2607532;47;20456;-74
2023/11/08 05:12:38;;;;;;;2.40;1.90;;;;;;;;;;2608417;54;21003;-75
2023/11/08 05:15:08;;;;;;;2.63;2.33;;;;;;;;;;2608211;46;20859;-76
2023/11/08 05:17:35;;;;;;;4.60;1.87;;;;;;;;;;2607820;54;20424;-75
2023/11/08 05:20:01;;;;;;;2.37;1.73;;;;;;;;;;2608754;54;20411;-76
2023/11/08 05:22:27;;;;;;;3.00;2.00;;;;;;;;;;2608251;54;20416;-74
2023/11/08 05:24:53;;;;;;;3.00;1.83;;;;;;;;;;2607815;54;20407;-74
2023/11/08 05:27:19;;;;;;;7.70;2.33;;;;;;;;;;2607774;47;20412;-75
2023/11/08 05:29:45;;;;;;;6.63;2.47;;;;;;;;;;2608001;39;20863;-76
2023/11/08 05:32:11;;;;;;;3.07;1.53;;;;;;;;;;2608381;54;20392;-75
2023/11/08 05:34:37;;;;;;;5.13;2.50;;;;;;;;;;2607509;54;20504;-74
2023/11/08 05:37:04;;;;;;;7.43;2.13;;;;;;;;;;2607268;54;20462;-73
2023/11/08 05:39:31;;;;;;;3.80;2.20;;;;;;;;;;2607189;47;20438;-74
2023/11/08 05:41:57;;;;;;;9.13;2.00;;;;;;;;;;2608508;39;20776;-74
2023/11/08 05:44:24;;;;;;;3.80;1.40;;;;;;;;;;2607262;54;20458;-76
2023/11/08 05:46:50;;;;;;;5.73;2.40;;;;;;;;;;2608473;54;20395;-77
2023/11/08 05:49:17;;;;;;;6.50;2.50;;;;;;;;;;2607758;54;20995;-78
2023/11/08 05:51:43;;;;;;;10.23;2.30;;;;;;;;;;2609415;54;20467;-77
2023/11/08 05:54:09;;;;;;;4.90;2.37;;;;;;;;;;2608595;39;20812;-76
2023/11/08 05:56:35;;;;;;;8.40;3.00;;;;;;;;;;2608023;54;20435;-75
2023/11/08 05:59:01;;;;;;;9.13;2.50;;;;;;;;;;2607690;46;20438;-76
2023/11/08 06:01:27;;;;;;;5.83;1.93;;;;;;;;;;2609752;46;20435;-75
2023/11/08 06:03:53;;;;;;;3.57;2.23;;;;;;;;;;2609370;54;20488;-75
2023/11/08 06:06:19;;;;;;;5.17;2.00;;;;;;;;;;2610041;54;20467;-80
2023/11/08 06:08:48;;;;;;;4.30;2.40;;;;;;;;;;2609020;54;20426;-79
2023/11/08 06:11:16;;;;;;;4.33;2.43;;;;;;;;;;2606744;47;20796;-75
2023/11/08 06:13:43;;;;;;;5.53;2.23;;;;;;;;;;2606632;54;20997;-74
2023/11/08 06:16:09;;;;;;;3.87;2.13;;;;;;;;;;2608657;54;20553;-74
2023/11/08 06:18:36;;;;;;;3.43;2.40;;;;;;;;;;2610764;54;20417;-75
2023/11/08 06:21:03;;;;;;;3.70;2.13;;;;;;;;;;2610802;54;20529;-73
2023/11/08 06:23:30;;;;;;;7.03;2.67;;;;;;;;;;2611418;54;20407;-74
2023/11/08 06:25:56;;;;;;;4.63;3.00;;;;;;;;;;2610646;54;20416;-73
2023/11/08 06:28:22;;;;;;;7.87;2.93;;;;;;;;;;2611020;54;20531;-73
2023/11/08 06:30:48;;;;;;;4.77;2.70;;;;;;;;;;2610615;54;20418;-74
2023/11/08 06:33:14;;;;;;;3.37;2.30;;;;;;;;;;2611886;54;20403;-74
2023/11/08 06:35:41;;;;;;;4.53;2.53;;;;;;;;;;2611419;54;20439;-74
2023/11/08 06:38:07;;;;;;;5.70;2.47;;;;;;;;;;2610491;54;20404;-74
2023/11/08 06:40:34;;;;;;;2.87;2.10;;;;;;;;;;2610665;47;20415;-73
2023/11/08 06:43:00;;;;;;;4.40;2.53;;;;;;;;;;2610860;51;20972;-74
2023/11/08 06:45:26;;;;;;;7.10;2.80;;;;;;;;;;2610531;54;20487;-74
2023/11/08 06:47:52;;;;;;;6.07;2.13;;;;;;;;;;2610067;39;20710;-76
2023/11/08 06:50:18;;;;;;;5.50;1.97;;;;;;;;;;2605389;47;20404;-75
2023/11/08 06:52:44;;;;;;;5.17;3.07;;;;;;;;;;2610136;54;20461;-73
2023/11/08 06:55:10;;;;;;;9.80;2.67;;;;;;;;;;2610945;54;21171;-75
2023/11/08 06:57:36;;;;;;;4.63;2.17;;;;;;;;;;2612872;54;20423;-76
2023/11/08 07:00:02;;;;;;;6.13;2.00;;;;;;;;;;2612866;31;20919;-77
2023/11/08 07:02:28;;;;;;;7.73;2.33;;;;;;;;;;2612577;54;20401;-77
2023/11/08 07:04:54;;;;;;;4.60;2.90;;;;;;;;;;2612169;39;20916;-76
2023/11/08 07:07:20;;;;;;;6.80;2.10;;;;;;;;;;2613546;54;20437;-76
2023/11/08 07:09:49;;;;;;;7.93;2.57;;;;;;;;;;2612956;54;20427;-75
2023/11/08 07:12:16;;;;;;;4.77;2.00;;;;;;;;;;2612910;54;20395;-76
2023/11/08 07:14:42;;;;;;;4.43;3.20;;;;;;;;;;2613804;54;20414;-75
2023/11/08 07:17:08;;;;;;;2.30;1.63;;;;;;;;;;2611855;54;20964;-75
2023/11/08 07:19:34;;;;;;;5.87;2.50;;;;;;;;;;2610948;54;20461;-75
2023/11/08 07:22:00;;;;;;;8.03;3.43;;;;;;;;;;2608978;47;20439;-75
2023/11/08 07:24:26;;;;;;;4.33;2.80;;;;;;;;;;2610264;54;20525;-75
2023/11/08 07:26:52;;;;;;;7.77;2.90;;;;;;;;;;2611760;39;20798;-75
2023/11/08 07:29:18;;;;;;;6.80;2.70;;;;;;;;;;2611189;54;20417;-75
2023/11/08 07:31:44;;;;;;;5.30;2.27;;;;;;;;;;2610968;54;20420;-74
2023/11/08 07:34:11;;;;;;;6.40;2.60;;;;;;;;;;2610879;54;20506;-75
2023/11/08 07:36:39;;;;;;;7.53;3.00;;;;;;;;;;2610606;47;20442;-75
2023/11/08 07:39:06;;;;;;;6.30;3.40;;;;;;;;;;2610393;54;20982;-74
2023/11/08 07:41:33;;;;;;;7.73;3.50;;;;;;;;;;2611265;54;20382;-76
2023/11/08 07:44:00;;;;;;;6.13;2.33;;;;;;;;;;2610832;54;20409;-74
2023/11/08 07:46:26;;;;;;;10.20;3.33;;;;;;;;;;2610385;54;20421;-75
2023/11/08 07:48:55;;;;;;;6.37;3.13;;;;;;;;;;2611429;39;20805;-75
2023/11/08 07:51:22;;;;;;;6.50;3.10;;;;;;;;;;2610821;54;20909;-74
2023/11/08 07:53:50;;;;;;;12.57;2.57;;;;;;;;;;2610591;54;20395;-75
2023/11/08 07:56:17;;;;;;;7.13;3.20;;;;;;;;;;2611380;54;20389;-75
2023/11/08 07:58:43;;;;;;;10.20;3.67;;;;;;;;;;2610591;39;20824;-74
2023/11/08 08:01:09;;;;;;;6.67;3.13;;;;;;;;;;2611110;39;20961;-74
2023/11/08 08:03:35;;;;;;;4.70;2.93;;;;;;;;;;2610649;54;20420;-75
2023/11/08 08:06:03;;;;;;;5.07;2.73;;;;;;;;;;2611871;54;20446;-75
2023/11/08 08:08:30;;;;;;;4.40;2.97;;;;;;;;;;2614166;54;20465;-76
2023/11/08 08:10:58;;;;;;;7.53;4.43;;;;;;;;;;2615002;39;20944;-77
2023/11/08 08:13:25;;;;;;;4.90;2.63;;;;;;;;;;2613872;54;20399;-77
2023/11/08 08:15:51;;;;;;;6.23;3.07;;;;;;;;;;2613118;54;21190;-77
2023/11/08 08:18:17;;;;;;;10.30;3.30;;;;;;;;;;2613577;54;20399;-77
2023/11/08 08:20:45;;;;;;;7.60;3.30;;;;;;;;;;2613263;46;20419;-76
2023/11/08 08:23:11;;;;;;;4.27;3.43;;;;;;;;;;2613951;54;20416;-76
2023/11/08 08:25:39;;;;;;;7.60;2.93;;;;;;;;;;2613516;54;20415;-77
2023/11/08 08:28:05;;;;;;;6.07;3.80;;;;;;;;;;2611505;54;20415;-76
2023/11/08 08:30:31;;;;;;;10.57;3.77;;;;;;;;;;2611840;39;20748;-76
2023/11/08 08:33:01;;;;;;;6.60;3.20;;;;;;;;;;2611010;54;20431;-76
2023/11/08 08:35:28;;;;;;;3.27;2.00;;;;;;;;;;2611362;54;20458;-75
2023/11/08 08:37:54;;;;;;;9.37;3.50;;;;;;;;;;2611049;54;20447;-76
2023/11/08 08:40:20;;;;;;;5.80;2.30;;;;;;;;;;2611634;54;20972;-75
2023/11/08 08:42:46;;;;;;;4.40;3.07;;;;;;;;;;2611028;47;20469;-76
2023/11/08 08:45:13;;;;;;;9.20;4.00;;;;;;;;;;2611756;54;20395;-76
2023/11/08 08:47:40;;;;;;;5.40;2.87;;;;;;;;;;2612028;54;20419;-76
2023/11/08 08:50:08;;;;;;;4.70;3.27;;;;;;;;;;2610278;54;20410;-76
2023/11/08 08:52:35;;;;;;;5.03;2.90;;;;;;;;;;2611258;54;20412;-75
2023/11/08 08:55:00;;;;;;;9.10;3.43;;;;;;;;;;2611832;54;21030;-76
2023/11/08 08:57:26;;;;;;;7.13;3.30;;;;;;;;;;2611784;54;20409;-76
2023/11/08 08:59:52;;;;;;;4.03;2.80;;;;;;;;;;2611205;54;20949;-75
2023/11/08 09:02:19;;;;;;;6.63;3.13;;;;;;;;;;2609636;54;20404;-75
2023/11/08 09:04:45;;;;;;;9.07;3.90;;;;;;;;;;2611247;54;20451;-76
2023/11/08 09:07:11;;;;;;;7.10;4.10;;;;;;;;;;2610973;39;20830;-76
2023/11/08 09:09:37;;;;;;;4.97;3.00;;;;;;;;;;2611112;54;20413;-75
2023/11/08 09:12:03;;;;;;;6.37;3.20;;;;;;;;;;2610447;54;20526;-75
2023/11/08 09:14:30;;;;;;;8.70;3.33;;;;;;;;;;2610050;39;20687;-76
2023/11/08 09:16:57;;;;;;;5.77;3.60;;;;;;;;;;2611399;54;20446;-76
2023/11/08 09:19:24;;;;;;;8.23;3.50;;;;;;;;;;2611860;39;20479;-76
2023/11/08 09:21:50;;;;;;;9.80;4.13;;;;;;;;;;2611886;54;20420;-75
2023/11/08 09:24:16;;;;;;;7.30;3.07;;;;;;;;;;2610468;39;20545;-75
2023/11/08 09:26:45;;;;;;;6.83;3.20;;;;;;;;;;2611818;54;20447;-77
2023/11/08 09:29:12;;;;;;;4.43;3.20;;;;;;;;;;2611270;54;20415;-74
2023/11/08 09:31:38;;;;;;;6.63;3.10;;;;;;;;;;2610929;39;20814;-75
2023/11/08 09:34:07;;;;;;;11.83;4.30;;;;;;;;;;2610732;54;20431;-75
2023/11/08 09:36:36;;;;;;;6.70;3.37;;;;;;;;;;2611172;54;20420;-74
2023/11/08 09:39:02;;;;;;;4.23;3.10;;;;;;;;;;2611108;54;20408;-76
2023/11/08 09:41:28;;;;;;;6.77;3.07;;;;;;;;;;2611711;54;20399;-75
2023/11/08 09:43:55;;;;;;;10.63;3.87;;;;;;;;;;2611252;54;20415;-75
2023/11/08 09:46:21;;;;;;;3.97;3.17;;;;;;;;;;2611421;54;20534;-76
2023/11/08 09:48:51;;;;;;;3.77;3.30;;;;;;;;;;2611996;54;20775;-75
2023/11/08 09:51:17;;;;;;;4.20;3.80;;;;;;;;;;2611421;39;20805;-73
2023/11/08 09:53:43;;;;;;;13.10;3.97;;;;;;;;;;2609834;54;20962;-74
2023/11/08 09:56:13;;;;;;;11.33;3.37;;;;;;;;;;2607700;54;20412;-75
2023/11/08 09:58:46;;;;;;;8.00;3.60;;;;;;;;;;2608268;54;20419;-76
2023/11/08 10:01:15;;;;;;;4.37;3.63;;;;;;;;;;2607520;47;20439;-73
2023/11/08 10:03:42;;;;;;;4.43;4.00;;;;;;;;;;2610482;54;20438;-75
2023/11/08 10:06:09;;;;;;;3.97;3.67;;;;;;;;;;2611174;54;20458;-74
2023/11/08 10:08:35;;;;;;;7.13;3.10;;;;;;;;;;2611190;54;20478;-74
2023/11/08 10:11:02;;;;;;;5.33;4.33;;;;;;;;;;2609812;54;20404;-75
2023/11/08 10:13:49;;;;;;;3.40;3.10;;;;;;;;;;2609293;47;20399;-74
2023/11/08 10:16:17;;;;;;;3.67;3.10;;;;;;;;;;2610830;39;20890;-76
2023/11/08 10:18:43;;;;;;;8.73;4.50;;;;;;;;;;2612518;39;20866;-74
2023/11/08 10:21:18;;;;;;;4.70;3.97;;;;;;;;;;2610696;54;20424;-74
2023/11/08 10:23:46;;;;;;;5.27;4.77;;;;;;;;;;2609981;47;20434;-76
2023/11/08 10:26:24;;;;;;;12.33;4.63;;;;;;;;;;2610793;54;20555;-76
2023/11/08 10:28:56;;;;;;;5.30;4.80;;;;;;;;;;2611031;46;20465;-75
2023/11/08 10:31:36;;;;;;;4.33;4.03;;;;;;;;;;2610681;54;20476;-76
2023/11/08 10:34:03;;;;;;;6.80;4.63;;;;;;;;;;2611343;47;20981;-75
2023/11/08 10:36:29;;;;;;;5.90;4.50;;;;;;;;;;2610666;54;20783;-75
2023/11/08 10:38:55;;;;;;;4.67;4.17;;;;;;;;;;2611446;54;20395;-75
2023/11/08 10:41:22;;;;;;;5.20;4.80;;;;;;;;;;2610684;46;20472;-73
2023/11/08 10:43:48;;;;;;;4.50;4.30;;;;;;;;;;2611013;54;20527;-73
2023/11/08 10:46:14;;;;;;;6.00;4.37;;;;;;;;;;2609940;54;20985;-75
2023/11/08 10:48:43;;;;;;;5.70;5.30;;;;;;;;;;2610790;54;20461;-75
2023/11/08 10:51:12;;;;;;;9.37;4.73;;;;;;;;;;2610049;46;20498;-74
2023/11/08 10:53:38;;;;;;;7.13;5.70;;;;;;;;;;2610044;51;20473;-76
2023/11/08 10:56:05;;;;;;;5.90;4.47;;;;;;;;;;2609498;46;20453;-75
2023/11/08 10:58:37;;;;;;;5.37;4.87;;;;;;;;;;2610529;47;20438;-76
2023/11/08 11:01:04;;;;;;;4.73;4.43;;;;;;;;;;2608780;39;20885;-76
2023/11/08 11:03:31;;;;;;;17.57;6.10;;;;;;;;;;2608110;39;20831;-76
2023/11/08 11:06:00;;;;;;;4.97;4.60;;;;;;;;;;2609640;54;20459;-76
2023/11/08 11:08:28;;;;;;;8.00;5.57;;;;;;;;;;2611646;54;20388;-76
2023/11/08 11:10:54;;;;;;;6.80;5.40;;;;;;;;;;2610836;47;20422;-76
2023/11/08 11:13:31;;;;;;;5.43;5.03;;;;;;;;;;2611327;46;20431;-76
2023/11/08 11:15:57;;;;;;;7.60;5.53;;;;;;;;;;2611579;54;20427;-75
2023/11/08 11:18:36;;;;;;;5.27;4.83;;;;;;;;;;2611702;54;21189;-74
2023/11/08 11:21:09;;;;;;;7.13;5.53;;;;;;;;;;2611665;39;20820;-75
2023/11/08 11:23:39;;;;;;;5.90;5.33;;;;;;;;;;2610017;54;20432;-75
2023/11/08 11:26:05;;;;;;;5.80;5.30;;;;;;;;;;2611147;54;20922;-75
2023/11/08 11:28:55;;;;;;;6.37;5.70;;;;;;;;;;2611404;54;20415;-75
2023/11/08 11:31:33;;;;;;;6.70;6.00;;;;;;;;;;2610570;54;20424;-75
2023/11/08 11:34:00;;;;;;;7.70;5.50;;;;;;;;;;2611462;54;20407;-74
2023/11/08 11:36:26;;;;;;;6.97;5.67;;;;;;;;;;2611418;54;20414;-75
2023/11/08 11:39:12;;;;;;;5.20;4.90;;;;;;;;;;2610919;54;20507;-75
2023/11/08 11:41:38;;;;;;;5.63;4.90;;;;;;;;;;2610937;54;20519;-76
2023/11/08 11:44:10;;;;;;;5.83;5.40;;;;;;;;;;2611596;54;20424;-75
2023/11/08 11:46:36;;;;;;;5.80;5.40;;;;;;;;;;2611388;54;20989;-76
2023/11/08 11:49:09;;;;;;;5.93;5.53;;;;;;;;;;2612259;54;20427;-76
2023/11/08 11:51:36;;;;;;;5.50;4.97;;;;;;;;;;2612014;54;20418;-78
2023/11/08 11:54:03;;;;;;;5.47;4.97;;;;;;;;;;2611315;39;20566;-78
2023/11/08 11:56:31;;;;;;;5.43;5.00;;;;;;;;;;2612067;54;20419;-77
2023/11/08 11:58:57;;;;;;;7.17;5.77;;;;;;;;;;2611420;54;20407;-78
2023/11/08 12:01:23;;;;;;;6.70;5.67;;;;;;;;;;2611321;54;20499;-77
2023/11/08 12:03:49;;;;;;;5.40;5.10;;;;;;;;;;2611687;54;20415;-78
2023/11/08 12:06:15;;;;;;;5.40;5.10;;;;;;;;;;2611879;54;20466;-75
2023/11/08 12:08:41;;;;;;;5.80;5.30;;;;;;;;;;2611271;54;20488;-76
2023/11/08 12:11:15;;;;;;;6.13;5.17;;;;;;;;;;2610360;54;20419;-75
2023/11/08 12:13:47;;;;;;;5.37;4.90;;;;;;;;;;2610721;47;20441;-76
2023/11/08 12:16:13;;;;;;;5.77;5.47;;;;;;;;;;2612081;39;21053;-76
2023/11/08 12:18:40;;;;;;;6.00;5.50;;;;;;;;;;2611779;39;20748;-75
2023/11/08 12:21:06;;;;;;;6.00;5.50;;;;;;;;;;2611562;54;20410;-75
2023/11/08 12:23:33;;;;;;;6.33;5.63;;;;;;;;;;2610990;39;20850;-75
2023/11/08 12:26:01;;;;;;;9.57;6.20;;;;;;;;;;2611195;39;20844;-76
2023/11/08 12:28:27;;;;;;;6.80;6.20;;;;;;;;;;2611224;54;21024;-76
2023/11/08 12:30:53;;;;;;;5.77;5.37;;;;;;;;;;2610525;54;20395;-75
2023/11/08 12:33:19;;;;;;;5.60;5.20;;;;;;;;;;2610249;54;21004;-75
2023/11/08 12:35:45;;;;;;;8.33;6.07;;;;;;;;;;2610493;54;20582;-75
2023/11/08 12:38:11;;;;;;;6.67;6.10;;;;;;;;;;2611073;54;20478;-75
2023/11/08 12:40:37;;;;;;;5.30;4.90;;;;;;;;;;2610308;54;20442;-76
2023/11/08 12:43:12;;;;;;;5.97;5.47;;;;;;;;;;2611347;54;20481;-76
2023/11/08 12:45:40;;;;;;;7.10;5.80;;;;;;;;;;2610825;47;20439;-76
2023/11/08 12:48:07;;;;;;;6.07;5.67;;;;;;;;;;2610773;39;20550;-76
2023/11/08 12:50:34;;;;;;;6.43;5.97;;;;;;;;;;2611324;54;20431;-75
2023/11/08 12:53:00;;;;;;;7.17;5.60;;;;;;;;;;2611505;54;20546;-75
2023/11/08 12:55:26;;;;;;;6.80;6.27;;;;;;;;;;2611933;54;20407;-75
2023/11/08 12:57:53;;;;;;;6.17;5.57;;;;;;;;;;2610864;46;20860;-75
2023/11/08 13:00:40;;;;;;;7.00;6.40;;;;;;;;;;2611165;47;21049;-76
2023/11/08 13:03:06;;;;;;;6.63;6.20;;;;;;;;;;2612255;54;21194;-76
2023/11/08 13:05:34;;;;;;;5.77;5.37;;;;;;;;;;2611764;54;21013;-76
2023/11/08 13:08:00;;;;;;;5.87;5.57;;;;;;;;;;2611248;54;20434;-78
2023/11/08 13:10:26;;;;;;;6.00;5.60;;;;;;;;;;2611753;54;20430;-78
2023/11/08 13:12:52;;;;;;;6.40;6.00;;;;;;;;;;2611952;54;20487;-77
2023/11/08 13:15:18;;;;;;;6.87;6.17;;;;;;;;;;2612760;39;20806;-76
2023/11/08 13:17:47;;;;;;;8.07;6.73;;;;;;;;;;2612129;47;20407;-76
2023/11/08 13:20:13;;;;;;;5.60;5.17;;;;;;;;;;2611769;54;20396;-75
2023/11/08 13:22:39;;;;;;;5.97;5.33;;;;;;;;;;2610174;39;20796;-75
2023/11/08 13:25:07;;;;;;;6.07;5.37;;;;;;;;;;2610389;47;20426;-75
2023/11/08 13:27:33;;;;;;;7.73;7.23;;;;;;;;;;2610380;54;20434;-75
2023/11/08 13:29:59;;;;;;;6.83;6.33;;;;;;;;;;2612100;39;20685;-75
2023/11/08 13:32:28;;;;;;;6.73;6.00;;;;;;;;;;2610666;54;20447;-75
2023/11/08 13:34:54;;;;;;;7.70;7.10;;;;;;;;;;2610363;54;20418;-75
2023/11/08 13:37:21;;;;;;;8.50;6.37;;;;;;;;;;2611782;54;20428;-75
2023/11/08 13:39:47;;;;;;;11.87;8.13;;;;;;;;;;2611383;54;20419;-76
2023/11/08 13:42:13;;;;;;;6.73;6.23;;;;;;;;;;2611498;54;20443;-76
2023/11/08 13:44:39;;;;;;;8.90;6.07;;;;;;;;;;2610706;54;20434;-75
2023/11/08 13:47:05;;;;;;;6.93;6.20;;;;;;;;;;2611607;54;20427;-75
2023/11/08 13:49:31;;;;;;;5.60;5.13;;;;;;;;;;2611265;54;20424;-74
2023/11/08 13:51:57;;;;;;;6.83;5.43;;;;;;;;;;2611526;54;20428;-75
2023/11/08 13:54:24;;;;;;;7.00;6.40;;;;;;;;;;2610338;39;20929;-75
2023/11/08 13:56:51;;;;;;;7.00;6.40;;;;;;;;;;2610303;54;20474;-75
2023/11/08 13:59:22;;;;;;;6.57;5.43;;;;;;;;;;2611034;54;20546;-75
2023/11/08 14:01:48;;;;;;;6.67;6.17;;;;;;;;;;2610494;54;21063;-75
2023/11/08 14:04:15;;;;;;;6.97;6.47;;;;;;;;;;2609862;54;20538;-75
2023/11/08 14:06:41;;;;;;;5.87;5.43;;;;;;;;;;2610354;47;20447;-75
2023/11/08 14:09:07;;;;;;;6.00;5.60;;;;;;;;;;2611586;39;20920;-74
2023/11/08 14:11:33;;;;;;;6.10;5.70;;;;;;;;;;2610052;54;20420;-74
2023/11/08 14:13:59;;;;;;;6.60;6.20;;;;;;;;;;2610654;54;20533;-75
2023/11/08 14:16:25;;;;;;;6.30;5.63;;;;;;;;;;2610328;54;20555;-75
2023/11/08 14:18:51;;;;;;;6.73;6.40;;;;;;;;;;2611316;54;21138;-75
2023/11/08 14:21:17;;;;;;;6.37;5.80;;;;;;;;;;2610230;54;20511;-75
2023/11/08 14:23:43;;;;;;;5.70;5.20;;;;;;;;;;2610313;54;20407;-75
2023/11/08 14:26:09;;;;;;;5.87;5.37;;;;;;;;;;2609872;54;21489;-75
2023/11/08 14:28:35;;;;;;;6.80;6.23;;;;;;;;;;2611481;54;20431;-77
2023/11/08 14:31:03;;;;;;;6.87;6.20;;;;;;;;;;2611329;54;21003;-77
2023/11/08 14:33:30;;;;;;;5.80;5.50;;;;;;;;;;2611949;47;21039;-77
2023/11/08 14:35:58;;;;;;;6.57;5.97;;;;;;;;;;2612697;54;20985;-77
2023/11/08 14:38:24;;;;;;;5.87;5.40;;;;;;;;;;2612714;54;21115;-75
2023/11/08 14:40:50;;;;;;;6.27;5.87;;;;;;;;;;2611210;54;20418;-76
2023/11/08 14:43:18;;;;;;;5.83;5.43;;;;;;;;;;2609920;54;20407;-74